createdAt,value
2023-11-30T00:02:33.125Z,19.37
2023-11-30T00:06:40.858Z,19.33
2023-11-30T00:10:42.172Z,19.50
2023-11-30T00:14:43.501Z,19.03
2023-11-30T00:18:44.863Z,18.95
2023-11-30T00:22:47.886Z,18.33
2023-11-30T00:26:49.312Z,19.16
2023-11-30T00:30:50.730Z,19.30
2023-11-30T00:34:52.260Z,19.01
2023-11-30T00:38:54.894Z,19.12
2023-11-30T00:42:56.274Z,19.18
2023-11-30T00:46:57.753Z,19.24
2023-11-30T00:50:59.169Z,19.42
2023-11-30T00:55:00.555Z,19.31
2023-11-30T00:59:01.894Z,19.19
2023-11-30T01:03:03.263Z,19.81
2023-11-30T01:07:04.852Z,19.56
2023-11-30T01:11:07.321Z,19.46
2023-11-30T01:15:09.294Z,19.20
2023-11-30T01:19:12.354Z,19.70
2023-11-30T01:23:14.091Z,19.69
2023-11-30T01:27:17.087Z,19.37
2023-11-30T01:31:18.737Z,19.87
2023-11-30T01:35:20.035Z,19.59
2023-11-30T01:39:21.420Z,19.39
2023-11-30T01:43:22.944Z,19.78
2023-11-30T01:47:24.524Z,19.39
2023-11-30T01:51:27.521Z,19.21
2023-11-30T01:55:29.032Z,19.52
2023-11-30T01:59:31.632Z,19.10
2023-11-30T02:03:33.505Z,19.72
2023-11-30T02:07:34.900Z,19.75
2023-11-30T02:11:36.293Z,18.87
2023-11-30T02:15:37.594Z,19.61
2023-11-30T02:19:40.634Z,19.53
2023-11-30T02:23:42.029Z,19.82
2023-11-30T02:27:43.365Z,19.95
2023-11-30T02:31:44.835Z,18.87
2023-11-30T02:35:46.376Z,19.42
2023-11-30T02:39:47.677Z,19.84
2023-11-30T02:43:49.057Z,19.24
2023-11-30T02:47:50.536Z,19.84
2023-11-30T02:51:52.023Z,19.15
2023-11-30T02:55:53.370Z,19.72
2023-11-30T02:59:54.738Z,19.49
2023-11-30T03:03:56.077Z,19.43
2023-11-30T03:07:57.465Z,19.34
2023-11-30T03:11:58.907Z,19.33
2023-11-30T03:16:00.318Z,19.70
2023-11-30T03:20:01.622Z,19.76
2023-11-30T03:24:03.243Z,19.69
2023-11-30T03:28:05.338Z,19.54
2023-11-30T03:32:06.768Z,18.15
2023-11-30T03:36:08.748Z,19.24
2023-11-30T03:40:11.220Z,19.63
2023-11-30T03:44:12.561Z,18.98
2023-11-30T03:48:13.937Z,19.50
2023-11-30T03:52:15.314Z,19.48
2023-11-30T03:56:16.726Z,19.75
2023-11-30T04:00:18.561Z,19.40
2023-11-30T04:04:20.038Z,19.29
2023-11-30T04:08:21.702Z,19.18
2023-11-30T04:12:23.170Z,19.32
2023-11-30T04:16:24.514Z,19.63
2023-11-30T04:20:25.934Z,19.68
2023-11-30T04:24:27.315Z,19.64
2023-11-30T04:28:28.647Z,19.39
2023-11-30T04:32:30.061Z,19.56
2023-11-30T04:36:31.607Z,19.41
2023-11-30T04:40:33.257Z,19.66
2023-11-30T04:44:34.603Z,19.81
2023-11-30T04:48:37.220Z,19.48
2023-11-30T04:52:39.503Z,19.31
2023-11-30T04:56:40.854Z,18.39
2023-11-30T05:00:42.902Z,20.03
2023-11-30T05:04:44.374Z,19.94
2023-11-30T05:08:45.729Z,19.63
2023-11-30T05:12:47.112Z,19.25
2023-11-30T05:16:48.598Z,19.50
2023-11-30T05:20:49.970Z,19.08
2023-11-30T05:24:51.455Z,18.63
2023-11-30T05:28:53.235Z,19.57
2023-11-30T05:32:54.739Z,19.06
2023-11-30T05:36:56.240Z,19.42
2023-11-30T05:40:57.657Z,19.47
2023-11-30T05:44:59.276Z,19.86
2023-11-30T05:49:00.786Z,19.52
2023-11-30T05:53:02.795Z,19.76
2023-11-30T05:57:04.385Z,19.99
2023-11-30T06:01:05.980Z,20.10
2023-11-30T06:05:07.802Z,18.92
2023-11-30T06:09:09.211Z,19.83
2023-11-30T06:13:11.689Z,20.13
2023-11-30T06:17:13.274Z,19.35
2023-11-30T06:21:14.673Z,20.40
2023-11-30T06:25:18.098Z,20.37
2023-11-30T06:29:19.949Z,20.39
2023-11-30T06:33:21.318Z,20.50
2023-11-30T06:37:22.643Z,20.14
2023-11-30T06:41:24.134Z,20.34
2023-11-30T06:45:25.497Z,19.84
2023-11-30T06:49:26.835Z,20.42
2023-11-30T06:53:29.905Z,20.66
2023-11-30T06:57:31.349Z,19.98
2023-11-30T07:01:32.870Z,19.89
2023-11-30T07:05:34.214Z,20.44
2023-11-30T07:09:35.796Z,20.61
2023-11-30T07:13:37.283Z,20.49
2023-11-30T07:17:38.720Z,19.75
2023-11-30T07:21:40.515Z,19.34
2023-11-30T07:25:41.874Z,20.27
2023-11-30T07:29:43.189Z,19.92
2023-11-30T07:33:44.541Z,19.68
2023-11-30T07:37:45.871Z,20.16
2023-11-30T07:41:48.579Z,19.38
2023-11-30T07:45:50.011Z,18.73
2023-11-30T07:49:51.500Z,19.22
2023-11-30T07:53:53.333Z,18.95
2023-11-30T07:57:54.644Z,19.15
2023-11-30T08:01:56.044Z,19.18
2023-11-30T08:05:57.350Z,19.55
2023-11-30T08:09:58.690Z,19.71
2023-11-30T08:14:00.138Z,20.55
2023-11-30T08:18:02.011Z,20.44
2023-11-30T08:22:03.617Z,19.69
2023-11-30T08:26:05.249Z,20.25
2023-11-30T08:30:10.767Z,20.41
2023-11-30T08:34:12.281Z,20.23
2023-11-30T08:38:13.841Z,20.18
2023-11-30T08:42:15.546Z,19.87
2023-11-30T08:46:16.989Z,19.03
2023-11-30T08:50:18.441Z,19.92
2023-11-30T08:54:22.325Z,20.35
2023-11-30T08:58:24.155Z,19.44
2023-11-30T09:02:25.668Z,20.16
2023-11-30T09:06:27.181Z,19.79
2023-11-30T09:10:29.368Z,20.57
2023-11-30T09:14:32.106Z,20.74
2023-11-30T09:18:33.592Z,20.86
2023-11-30T09:22:36.403Z,21.07
2023-11-30T09:26:37.818Z,20.54
2023-11-30T09:30:39.170Z,19.34
2023-11-30T09:34:40.534Z,20.85
2023-11-30T09:38:42.249Z,21.05
2023-11-30T09:42:43.738Z,20.98
2023-11-30T09:46:45.838Z,19.52
2023-11-30T09:50:48.241Z,21.54
2023-11-30T09:54:55.192Z,21.11
2023-11-30T09:58:56.832Z,20.60
2023-11-30T10:03:00.078Z,21.20
2023-11-30T10:07:03.323Z,20.57
2023-11-30T10:11:05.123Z,20.82
2023-11-30T10:15:07.065Z,21.01
2023-11-30T10:19:08.831Z,20.33
2023-11-30T10:23:14.343Z,21.18
2023-11-30T10:27:20.348Z,20.78
2023-11-30T10:31:25.493Z,21.61
2023-11-30T10:35:30.479Z,20.92
2023-11-30T10:39:37.617Z,20.20
2023-11-30T10:43:47.166Z,21.23
2023-11-30T10:47:48.997Z,21.11
2023-11-30T10:51:52.594Z,19.98
2023-11-30T10:55:55.447Z,20.18
2023-11-30T11:00:00.829Z,20.71
2023-11-30T11:04:06.894Z,21.58
2023-11-30T11:08:08.431Z,21.15
2023-11-30T11:12:22.485Z,22.09
2023-11-30T11:16:43.951Z,21.42
2023-11-30T11:20:45.400Z,21.82
2023-11-30T11:24:48.350Z,21.99
2023-11-30T11:28:50.356Z,21.65
2023-11-30T11:32:51.768Z,21.18
2023-11-30T11:36:53.439Z,22.04
2023-11-30T11:40:54.887Z,22.09
2023-11-30T11:44:56.486Z,21.99
2023-11-30T11:48:57.914Z,21.77
2023-11-30T11:53:00.867Z,19.25
2023-11-30T11:57:02.773Z,19.50
2023-11-30T12:01:04.353Z,19.49
2023-11-30T12:05:13.372Z,19.22
2023-11-30T12:09:14.762Z,21.89
2023-11-30T12:13:16.220Z,20.73
2023-11-30T12:17:17.559Z,21.53
2023-11-30T12:21:22.376Z,21.05
2023-11-30T12:25:25.874Z,20.93
2023-11-30T12:29:27.205Z,21.48
2023-11-30T12:33:28.661Z,22.17
2023-11-30T12:37:30.059Z,22.60
2023-11-30T12:41:31.634Z,21.84
2023-11-30T12:45:33.040Z,22.04
2023-11-30T12:49:35.861Z,20.79
2023-11-30T12:53:39.520Z,19.34
2023-11-30T12:57:41.113Z,21.61
2023-11-30T13:01:42.586Z,22.21
2023-11-30T13:05:44.078Z,22.32
2023-11-30T13:09:46.045Z,18.99
2023-11-30T13:13:47.924Z,21.71
2023-11-30T13:17:49.581Z,19.17
2023-11-30T13:21:51.749Z,19.66
2023-11-30T13:25:53.168Z,21.24
2023-11-30T13:29:54.616Z,21.62
2023-11-30T13:33:55.999Z,21.30
2023-11-30T13:38:00.251Z,22.03
2023-11-30T13:42:01.898Z,22.12
2023-11-30T13:46:06.763Z,19.40
2023-11-30T13:50:16.829Z,20.44
2023-11-30T13:54:28.170Z,21.23
2023-11-30T13:58:29.704Z,20.59
2023-11-30T14:02:31.028Z,20.43
2023-11-30T14:06:33.213Z,21.70
2023-11-30T14:10:34.638Z,22.21
2023-11-30T14:18:37.863Z,21.69
2023-11-30T14:22:39.288Z,21.80
2023-11-30T14:26:40.796Z,22.26
2023-11-30T14:30:42.269Z,21.51
2023-11-30T14:34:43.702Z,22.22
2023-11-30T14:38:45.383Z,21.87
2023-11-30T14:42:46.842Z,19.92
2023-11-30T14:46:48.239Z,22.53
2023-11-30T14:50:49.849Z,20.63
2023-11-30T14:54:54.001Z,22.19
2023-11-30T14:58:55.578Z,21.31
2023-11-30T15:02:56.916Z,21.89
2023-11-30T15:06:58.397Z,21.94
2023-11-30T15:11:00.314Z,21.78
2023-11-30T15:15:02.153Z,21.83
2023-11-30T15:19:05.012Z,21.86
2023-11-30T15:23:06.381Z,21.65
2023-11-30T15:27:07.912Z,20.69
2023-11-30T15:31:09.814Z,21.11
2023-11-30T15:35:11.285Z,20.29
2023-11-30T15:39:17.136Z,19.67
2023-11-30T15:43:18.529Z,19.51
2023-11-30T15:47:19.942Z,19.19
2023-11-30T15:51:21.333Z,19.36
2023-11-30T15:55:23.795Z,19.26
2023-11-30T15:59:25.539Z,19.15
2023-11-30T16:03:27.001Z,19.17
2023-11-30T16:07:28.389Z,20.08
2023-11-30T16:11:29.759Z,19.12
2023-11-30T16:15:31.149Z,18.86
2023-11-30T16:19:36.534Z,17.72
2023-11-30T16:23:37.852Z,17.94
2023-11-30T16:27:42.235Z,18.08
2023-11-30T16:31:43.668Z,18.47
2023-11-30T16:35:45.184Z,18.23
2023-11-30T16:39:47.305Z,19.03
2023-11-30T16:43:48.651Z,19.10
2023-11-30T16:47:49.975Z,18.15
2023-11-30T16:51:55.590Z,19.13
2023-11-30T16:56:00.996Z,18.45
2023-11-30T17:00:04.399Z,20.09
2023-11-30T17:04:06.267Z,19.56
2023-11-30T17:08:07.777Z,20.16
2023-11-30T17:12:09.181Z,20.09
2023-11-30T17:16:10.800Z,19.23
2023-11-30T17:20:15.288Z,19.50
2023-11-30T17:24:16.669Z,20.58
2023-11-30T17:28:18.223Z,20.54
2023-11-30T17:32:19.735Z,20.11
2023-11-30T17:36:22.365Z,20.45
2023-11-30T17:40:23.824Z,20.49
2023-11-30T17:44:26.366Z,20.28
2023-11-30T17:48:27.809Z,20.28
2023-11-30T17:52:29.634Z,20.28
2023-11-30T17:56:30.991Z,20.39
2023-11-30T18:00:32.430Z,20.28
2023-11-30T18:04:33.781Z,19.86
2023-11-30T18:08:35.195Z,19.83
2023-11-30T18:12:36.879Z,19.86
2023-11-30T18:16:38.371Z,19.77
2023-11-30T18:20:39.824Z,20.09
2023-11-30T18:24:41.271Z,19.84
2023-11-30T18:28:42.710Z,19.56
2023-11-30T18:32:44.211Z,19.77
2023-11-30T18:36:46.076Z,19.59
2023-11-30T18:40:47.479Z,19.72
2023-11-30T18:44:48.916Z,19.10
2023-11-30T18:48:50.294Z,19.74
2023-11-30T18:52:52.630Z,20.05
2023-11-30T18:56:54.099Z,19.71
2023-11-30T19:00:58.182Z,19.90
2023-11-30T19:04:59.581Z,19.31
2023-11-30T19:09:00.917Z,18.36
2023-11-30T19:13:02.321Z,19.83
2023-11-30T19:17:03.798Z,19.87
2023-11-30T19:21:05.327Z,19.40
2023-11-30T19:25:07.613Z,19.92
2023-11-30T19:29:11.323Z,19.70
2023-11-30T19:33:12.686Z,19.72
2023-11-30T19:37:14.130Z,19.24
2023-11-30T19:41:15.544Z,19.56
2023-11-30T19:45:16.846Z,18.70
2023-11-30T19:49:18.365Z,19.56
2023-11-30T19:53:19.682Z,19.36
2023-11-30T19:57:21.235Z,19.18
2023-11-30T20:01:23.216Z,18.51
2023-11-30T20:05:24.592Z,18.89
2023-11-30T20:09:25.921Z,18.56
2023-11-30T20:13:27.372Z,18.33
2023-11-30T20:17:28.740Z,16.56
2023-11-30T20:21:30.163Z,17.60
2023-11-30T20:25:31.516Z,17.98
2023-11-30T20:29:33.003Z,18.18
2023-11-30T20:33:34.422Z,18.91
2023-11-30T20:37:35.909Z,18.89
2023-11-30T20:41:37.285Z,19.15
2023-11-30T20:45:38.777Z,19.09
2023-11-30T20:49:40.098Z,19.12
2023-11-30T20:53:41.427Z,18.88
2023-11-30T20:57:45.455Z,18.87
2023-11-30T21:01:47.208Z,18.80
2023-11-30T21:05:50.024Z,18.64
2023-11-30T21:09:51.665Z,18.92
2023-11-30T21:13:53.648Z,19.25
2023-11-30T21:17:55.100Z,18.99
2023-11-30T21:21:56.560Z,19.09
2023-11-30T21:25:57.983Z,18.93
2023-11-30T21:29:59.799Z,18.51
2023-11-30T21:34:01.212Z,18.46
2023-11-30T21:38:02.751Z,18.69
2023-11-30T21:42:04.384Z,18.64
2023-11-30T21:46:06.260Z,18.88
2023-11-30T21:50:22.848Z,18.43
2023-11-30T21:54:26.453Z,18.70
2023-11-30T21:58:28.254Z,18.37
2023-11-30T22:02:29.708Z,17.15
2023-11-30T22:06:31.421Z,17.50
2023-11-30T22:10:32.791Z,17.97
2023-11-30T22:14:34.336Z,18.49
2023-11-30T22:18:37.330Z,18.39
2023-11-30T22:22:38.812Z,17.23
2023-11-30T22:26:41.725Z,18.22
2023-11-30T22:30:43.107Z,18.18
2023-11-30T22:34:44.787Z,18.16
2023-11-30T22:38:46.655Z,18.28
2023-11-30T22:42:48.099Z,18.55
2023-11-30T22:46:49.637Z,18.32
2023-11-30T22:50:51.043Z,18.62
2023-11-30T22:54:53.344Z,18.39
2023-11-30T22:58:56.507Z,18.32
2023-11-30T23:02:58.908Z,16.67
2023-11-30T23:07:00.543Z,16.60
2023-11-30T23:11:01.949Z,16.66
2023-11-30T23:15:03.618Z,15.72
2023-11-30T23:19:05.025Z,16.65
2023-11-30T23:23:06.601Z,16.09
2023-11-30T23:27:07.929Z,17.87
2023-11-30T23:31:09.357Z,17.94
2023-11-30T23:35:11.005Z,17.86
2023-11-30T23:39:12.369Z,14.19
2023-11-30T23:43:13.897Z,14.52
2023-11-30T23:47:15.319Z,15.60
2023-11-30T23:51:16.703Z,14.69
2023-11-30T23:55:18.959Z,15.46
2023-11-30T23:59:20.332Z,14.09
